createdAt,value
2023-04-16T00:00:08.593Z,13.00
2023-04-16T00:02:40.064Z,11.95
2023-04-16T00:05:09.708Z,10.65
2023-04-16T00:07:38.027Z,73.47
2023-04-16T00:10:07.330Z,54.85
2023-04-16T00:12:35.616Z,31.10
2023-04-16T00:15:03.987Z,55.83
2023-04-16T00:17:32.499Z,54.33
2023-04-16T00:20:01.108Z,59.28
2023-04-16T00:22:29.509Z,68.97
2023-04-16T00:25:00.708Z,55.20
2023-04-16T00:27:29.246Z,57.17
2023-04-16T00:29:57.622Z,38.03
2023-04-16T00:32:25.834Z,50.03
2023-04-16T00:34:54.054Z,13.55
2023-04-16T00:37:22.220Z,16.40
2023-04-16T00:39:51.601Z,28.17
2023-04-16T00:42:19.654Z,9.70
2023-04-16T00:44:47.901Z,7.40
2023-04-16T00:47:16.733Z,9.05
2023-04-16T00:49:45.182Z,6.68
2023-04-16T00:52:13.646Z,6.55
2023-04-16T00:54:42.065Z,5.88
2023-04-16T00:57:11.240Z,5.70
2023-04-16T00:59:39.491Z,5.55
2023-04-16T01:02:08.264Z,4.78
2023-04-16T01:04:36.684Z,5.47
2023-04-16T01:07:05.021Z,6.57
2023-04-16T01:09:33.270Z,4.85
2023-04-16T01:12:01.503Z,5.07
2023-04-16T01:14:29.934Z,4.68
2023-04-16T01:16:58.082Z,4.80
2023-04-16T01:19:26.310Z,4.40
2023-04-16T01:21:54.574Z,6.22
2023-04-16T01:24:22.896Z,6.47
2023-04-16T01:26:51.017Z,6.38
2023-04-16T01:29:19.244Z,4.40
2023-04-16T01:31:47.788Z,8.02
2023-04-16T01:34:37.119Z,11.05
2023-04-16T01:37:05.864Z,6.28
2023-04-16T01:39:33.950Z,6.13
2023-04-16T01:42:02.954Z,5.15
2023-04-16T01:44:31.351Z,5.38
2023-04-16T01:46:59.728Z,7.97
2023-04-16T01:49:28.019Z,8.13
2023-04-16T01:51:56.114Z,7.22
2023-04-16T01:54:24.411Z,5.43
2023-04-16T01:56:52.644Z,5.30
2023-04-16T01:59:20.841Z,5.03
2023-04-16T02:01:49.575Z,6.20
2023-04-16T02:04:17.843Z,12.27
2023-04-16T02:06:46.176Z,8.15
2023-04-16T02:09:15.150Z,6.63
2023-04-16T02:11:43.410Z,5.93
2023-04-16T02:14:11.575Z,5.28
2023-04-16T02:16:39.832Z,5.63
2023-04-16T02:19:37.126Z,5.03
2023-04-16T02:22:06.159Z,5.60
2023-04-16T02:24:34.198Z,4.90
2023-04-16T02:27:07.329Z,5.45
2023-04-16T02:29:35.628Z,5.45
2023-04-16T02:32:13.606Z,5.95
2023-04-16T02:34:45.460Z,5.82
2023-04-16T02:37:14.894Z,6.30
2023-04-16T02:39:43.045Z,8.10
2023-04-16T02:42:11.170Z,8.20
2023-04-16T02:44:39.450Z,8.68
2023-04-16T02:47:07.623Z,10.40
2023-04-16T02:49:35.893Z,7.43
2023-04-16T02:52:04.056Z,7.25
2023-04-16T02:54:32.422Z,6.97
2023-04-16T02:57:00.491Z,5.30
2023-04-16T02:59:28.639Z,6.25
2023-04-16T03:01:57.154Z,5.63
2023-04-16T03:04:25.480Z,6.22
2023-04-16T03:06:53.652Z,5.88
2023-04-16T03:09:21.797Z,5.93
2023-04-16T03:11:50.028Z,6.55
2023-04-16T03:14:18.578Z,6.82
2023-04-16T03:16:46.707Z,5.40
2023-04-16T03:19:14.972Z,6.20
2023-04-16T03:21:44.821Z,7.18
2023-04-16T03:24:13.123Z,6.18
2023-04-16T03:26:41.428Z,4.82
2023-04-16T03:29:10.848Z,6.20
2023-04-16T03:31:39.391Z,5.10
2023-04-16T03:34:07.584Z,9.30
2023-04-16T03:36:36.498Z,13.75
2023-04-16T03:39:04.701Z,6.07
2023-04-16T03:41:33.083Z,5.30
2023-04-16T03:44:02.016Z,7.50
2023-04-16T03:46:30.601Z,6.65
2023-04-16T03:48:58.859Z,6.47
2023-04-16T03:51:27.242Z,7.40
2023-04-16T03:53:55.444Z,8.60
2023-04-16T03:56:25.036Z,10.13
2023-04-16T03:58:54.363Z,10.68
2023-04-16T04:01:22.645Z,13.07
2023-04-16T04:03:51.294Z,12.85
2023-04-16T04:06:19.718Z,13.07
2023-04-16T04:08:49.251Z,11.90
2023-04-16T04:11:17.792Z,11.48
2023-04-16T04:13:46.249Z,10.50
2023-04-16T04:16:14.611Z,8.07
2023-04-16T04:18:44.804Z,7.95
2023-04-16T04:21:13.365Z,8.80
2023-04-16T04:23:41.524Z,8.25
2023-04-16T04:26:10.038Z,8.02
2023-04-16T04:28:38.327Z,7.53
2023-04-16T04:31:06.724Z,11.18
2023-04-16T04:33:34.802Z,10.15
2023-04-16T04:36:03.532Z,18.48
2023-04-16T04:38:34.045Z,15.60
2023-04-16T04:41:02.265Z,13.48
2023-04-16T04:43:34.525Z,10.38
2023-04-16T04:46:02.945Z,29.40
2023-04-16T04:48:32.800Z,22.27
2023-04-16T04:51:03.542Z,16.33
2023-04-16T04:53:33.121Z,20.25
2023-04-16T04:56:11.067Z,22.38
2023-04-16T04:58:41.936Z,12.43
2023-04-16T05:01:10.170Z,15.55
2023-04-16T05:03:38.439Z,15.57
2023-04-16T05:06:07.930Z,11.38
2023-04-16T05:08:36.285Z,9.48
2023-04-16T05:11:04.571Z,8.98
2023-04-16T05:13:32.736Z,9.55
2023-04-16T05:16:01.032Z,9.05
2023-04-16T05:18:29.216Z,21.52
2023-04-16T05:20:57.291Z,34.55
2023-04-16T05:23:25.692Z,35.75
2023-04-16T05:25:53.841Z,13.57
2023-04-16T05:28:22.179Z,11.10
2023-04-16T05:30:50.235Z,9.07
2023-04-16T05:33:18.512Z,7.90
2023-04-16T05:35:46.688Z,8.75
2023-04-16T05:38:14.872Z,7.85
2023-04-16T05:40:43.648Z,8.88
2023-04-16T05:43:11.781Z,9.73
2023-04-16T05:45:40.031Z,9.55
2023-04-16T05:48:08.990Z,8.00
2023-04-16T05:50:37.846Z,8.30
2023-04-16T05:53:07.841Z,8.15
2023-04-16T05:55:36.999Z,8.93
2023-04-16T05:58:05.355Z,8.07
2023-04-16T06:00:34.006Z,9.85
2023-04-16T06:03:03.164Z,8.85
2023-04-16T06:05:32.200Z,7.80
2023-04-16T06:08:00.436Z,7.03
2023-04-16T06:10:28.669Z,8.63
2023-04-16T06:12:56.673Z,11.48
2023-04-16T06:15:24.921Z,9.00
2023-04-16T06:17:53.062Z,8.38
2023-04-16T06:20:21.411Z,8.60
2023-04-16T06:22:49.840Z,8.45
2023-04-16T06:25:18.312Z,8.35
2023-04-16T06:27:46.513Z,9.75
2023-04-16T06:30:15.958Z,10.65
2023-04-16T06:32:44.683Z,10.00
2023-04-16T06:35:13.087Z,9.85
2023-04-16T06:37:41.319Z,9.80
2023-04-16T06:40:09.908Z,8.40
2023-04-16T06:42:38.186Z,9.02
2023-04-16T06:45:06.831Z,7.72
2023-04-16T06:47:34.966Z,8.27
2023-04-16T06:50:03.208Z,8.40
2023-04-16T06:52:31.608Z,9.85
2023-04-16T06:54:59.856Z,10.00
2023-04-16T06:57:28.011Z,9.10
2023-04-16T06:59:56.272Z,9.85
2023-04-16T07:02:25.088Z,11.30
2023-04-16T07:04:53.259Z,9.38
2023-04-16T07:07:21.501Z,10.13
2023-04-16T07:09:49.674Z,10.50
2023-04-16T07:12:18.761Z,8.40
2023-04-16T07:14:48.252Z,10.13
2023-04-16T07:17:16.512Z,10.63
2023-04-16T07:19:45.162Z,9.30
2023-04-16T07:22:13.417Z,9.88
2023-04-16T07:24:41.818Z,9.38
2023-04-16T07:27:09.911Z,9.30
2023-04-16T07:29:38.259Z,10.02
2023-04-16T07:32:06.643Z,9.90
2023-04-16T07:34:34.956Z,11.02
2023-04-16T07:37:03.041Z,10.07
2023-04-16T07:39:31.306Z,10.30
2023-04-16T07:41:59.682Z,10.95
2023-04-16T07:44:27.910Z,9.45
2023-04-16T07:46:56.058Z,9.73
2023-04-16T07:49:24.371Z,10.10
2023-04-16T07:51:52.650Z,9.93
2023-04-16T07:54:20.868Z,9.48
2023-04-16T07:56:48.908Z,9.70
2023-04-16T07:59:22.920Z,13.05
2023-04-16T08:01:54.260Z,10.10
2023-04-16T08:04:22.853Z,11.80
2023-04-16T08:06:51.838Z,11.10
2023-04-16T08:09:20.947Z,10.88
2023-04-16T08:11:50.166Z,10.40
2023-04-16T08:14:18.598Z,10.23
2023-04-16T08:16:46.731Z,10.15
2023-04-16T08:19:14.866Z,10.98
2023-04-16T08:21:43.145Z,10.95
2023-04-16T08:24:11.496Z,10.13
2023-04-16T08:26:39.700Z,9.85
2023-04-16T08:29:08.166Z,9.70
2023-04-16T08:31:36.587Z,8.40
2023-04-16T08:34:04.846Z,9.75
2023-04-16T08:36:33.006Z,8.20
2023-04-16T08:39:01.188Z,7.90
2023-04-16T08:41:34.866Z,8.43
2023-04-16T08:44:14.720Z,8.13
2023-04-16T08:46:44.394Z,8.82
2023-04-16T08:49:17.528Z,9.63
2023-04-16T08:51:51.806Z,9.65
2023-04-16T08:54:35.335Z,8.05
2023-04-16T08:57:07.473Z,8.13
2023-04-16T08:59:36.578Z,9.25
2023-04-16T09:02:06.439Z,9.18
2023-04-16T09:04:37.325Z,8.63
2023-04-16T09:07:08.576Z,8.70
2023-04-16T09:09:39.197Z,9.15
2023-04-16T09:12:09.354Z,8.60
2023-04-16T09:17:07.553Z,7.60
2023-04-16T09:22:03.958Z,7.40
2023-04-16T09:24:33.001Z,7.72
2023-04-16T09:27:01.961Z,8.80
2023-04-16T09:29:41.688Z,7.38
2023-04-16T09:32:12.172Z,8.57
2023-04-16T09:34:56.578Z,8.32
2023-04-16T09:37:26.169Z,8.50
2023-04-16T09:39:59.415Z,9.18
2023-04-16T09:42:32.456Z,11.13
2023-04-16T09:45:03.374Z,11.07
2023-04-16T09:47:46.653Z,11.20
2023-04-16T09:50:20.367Z,10.65
2023-04-16T09:52:52.347Z,10.75
2023-04-16T09:55:28.593Z,8.35
2023-04-16T09:58:00.933Z,9.30
2023-04-16T10:00:31.532Z,7.75
2023-04-16T10:03:07.339Z,8.98
2023-04-16T10:05:36.138Z,9.65
2023-04-16T10:08:11.605Z,8.25
2023-04-16T10:10:39.918Z,9.30
2023-04-16T10:13:08.569Z,9.25
2023-04-16T10:15:37.321Z,9.20
2023-04-16T10:18:06.740Z,7.50
2023-04-16T10:20:35.480Z,9.05
2023-04-16T10:23:05.445Z,11.55
2023-04-16T10:25:34.027Z,13.05
2023-04-16T10:28:02.965Z,9.07
2023-04-16T10:30:31.586Z,8.65
2023-04-16T10:33:00.838Z,9.45
2023-04-16T10:35:29.118Z,8.15
2023-04-16T10:38:23.844Z,8.98
2023-04-16T10:40:58.853Z,8.45
2023-04-16T10:43:27.215Z,8.55
2023-04-16T10:45:55.599Z,8.65
2023-04-16T10:48:26.312Z,7.53
2023-04-16T10:50:58.725Z,8.00
2023-04-16T10:53:28.083Z,8.88
2023-04-16T10:56:05.445Z,6.78
2023-04-16T10:58:36.870Z,9.30
2023-04-16T11:03:47.767Z,8.77
2023-04-16T11:06:18.104Z,8.38
2023-04-16T11:08:54.432Z,7.03
2023-04-16T11:11:23.907Z,7.85
2023-04-16T11:13:56.190Z,6.95
2023-04-16T11:16:26.309Z,7.15
2023-04-16T11:18:56.761Z,5.75
2023-04-16T11:21:25.916Z,5.70
2023-04-16T11:23:54.745Z,6.80
2023-04-16T11:26:29.883Z,7.05
2023-04-16T11:28:58.191Z,6.47
2023-04-16T11:31:26.658Z,7.03
2023-04-16T11:33:57.159Z,6.93
2023-04-16T11:36:27.459Z,8.38
2023-04-16T11:39:02.736Z,8.27
2023-04-16T11:41:31.353Z,8.43
2023-04-16T11:43:59.658Z,8.40
2023-04-16T11:46:40.612Z,8.88
2023-04-16T11:49:09.378Z,8.10
2023-04-16T11:51:42.403Z,8.82
2023-04-16T11:54:18.615Z,10.23
2023-04-16T11:56:48.582Z,10.63
2023-04-16T11:59:21.622Z,9.57
2023-04-16T12:01:52.154Z,7.93
2023-04-16T12:04:23.335Z,8.03
2023-04-16T12:07:08.880Z,8.02
2023-04-16T12:09:40.523Z,7.93
2023-04-16T12:12:28.723Z,8.50
2023-04-16T12:14:57.895Z,9.15
2023-04-16T12:17:26.770Z,8.25
2023-04-16T12:20:03.108Z,10.18
2023-04-16T12:22:37.022Z,6.50
2023-04-16T12:25:13.710Z,7.88
2023-04-16T12:27:46.827Z,8.57
2023-04-16T12:30:25.710Z,7.45
2023-04-16T12:33:16.774Z,6.78
2023-04-16T12:35:45.171Z,8.90
2023-04-16T12:38:13.853Z,8.52
2023-04-16T12:40:42.350Z,8.57
2023-04-16T12:43:11.163Z,8.70
2023-04-16T12:45:40.570Z,9.82
2023-04-16T12:48:08.952Z,9.13
2023-04-16T12:50:37.420Z,9.07
2023-04-16T12:53:05.641Z,9.57
2023-04-16T12:55:33.946Z,8.40
2023-04-16T12:58:02.277Z,7.43
2023-04-16T13:00:30.562Z,7.85
2023-04-16T13:02:58.892Z,8.85
2023-04-16T13:05:27.600Z,8.88
2023-04-16T13:07:55.999Z,6.88
2023-04-16T13:10:24.353Z,8.60
2023-04-16T13:12:52.572Z,7.63
2023-04-16T13:15:20.994Z,8.45
2023-04-16T13:17:49.214Z,7.43
2023-04-16T13:20:17.661Z,8.45
2023-04-16T13:22:45.933Z,9.80
2023-04-16T13:25:14.345Z,8.18
2023-04-16T13:27:42.590Z,8.98
2023-04-16T13:30:11.440Z,7.90
2023-04-16T13:32:39.835Z,8.65
2023-04-16T13:35:08.394Z,7.30
2023-04-16T13:37:36.673Z,8.82
2023-04-16T13:40:05.260Z,9.93
2023-04-16T13:42:33.495Z,6.97
2023-04-16T13:45:01.708Z,8.57
2023-04-16T13:47:30.065Z,8.35
2023-04-16T13:49:58.432Z,8.43
2023-04-16T13:52:26.598Z,7.32
2023-04-16T13:54:54.825Z,8.85
2023-04-16T13:57:23.117Z,7.50
2023-04-16T13:59:51.517Z,9.13
2023-04-16T14:02:20.732Z,7.40
2023-04-16T14:04:49.532Z,7.80
2023-04-16T14:07:17.783Z,8.20
2023-04-16T14:09:46.102Z,13.98
2023-04-16T14:12:14.274Z,9.60
2023-04-16T14:14:42.505Z,8.93
2023-04-16T14:17:10.837Z,8.55
2023-04-16T14:19:39.099Z,12.45
2023-04-16T14:22:08.770Z,11.25
2023-04-16T14:24:37.795Z,8.98
2023-04-16T14:27:06.009Z,10.60
2023-04-16T14:29:34.354Z,8.57
2023-04-16T14:32:02.659Z,9.13
2023-04-16T14:34:30.985Z,8.45
2023-04-16T14:36:59.345Z,11.55
2023-04-16T14:39:27.875Z,8.93
2023-04-16T14:41:55.946Z,10.20
2023-04-16T14:44:24.166Z,9.73
2023-04-16T14:46:52.436Z,11.40
2023-04-16T14:49:20.709Z,9.20
2023-04-16T14:51:49.009Z,12.63
2023-04-16T14:54:17.255Z,8.60
2023-04-16T14:56:45.928Z,9.20
2023-04-16T14:59:14.458Z,9.48
2023-04-16T15:01:43.208Z,8.52
2023-04-16T15:04:11.656Z,9.85
2023-04-16T15:06:40.095Z,10.75
2023-04-16T15:09:08.918Z,10.50
2023-04-16T15:11:37.133Z,12.18
2023-04-16T15:14:05.510Z,8.90
2023-04-16T15:16:33.983Z,10.63
2023-04-16T15:19:04.817Z,9.82
2023-04-16T15:21:34.177Z,9.25
2023-04-16T15:24:04.601Z,9.40
2023-04-16T15:26:33.048Z,9.15
2023-04-16T15:29:01.344Z,8.90
2023-04-16T15:31:29.800Z,9.38
2023-04-16T15:33:58.303Z,8.00
2023-04-16T15:36:26.588Z,9.23
2023-04-16T15:38:54.922Z,10.30
2023-04-16T15:41:23.271Z,9.27
2023-04-16T15:43:51.644Z,10.05
2023-04-16T15:46:20.034Z,9.65
2023-04-16T15:48:48.282Z,10.27
2023-04-16T15:51:16.795Z,8.73
2023-04-16T15:53:45.119Z,9.30
2023-04-16T15:56:13.410Z,8.98
2023-04-16T15:58:41.614Z,9.32
2023-04-16T16:01:09.892Z,8.35
2023-04-16T16:03:38.367Z,8.55
2023-04-16T16:06:07.258Z,8.88
2023-04-16T16:08:36.021Z,9.50
2023-04-16T16:11:04.741Z,8.80
2023-04-16T16:13:32.914Z,8.40
2023-04-16T16:16:01.305Z,9.70
2023-04-16T16:18:29.634Z,8.02
2023-04-16T16:21:00.665Z,7.63
2023-04-16T16:23:28.987Z,7.97
2023-04-16T16:25:57.287Z,8.52
2023-04-16T16:28:25.620Z,7.25
2023-04-16T16:30:53.900Z,8.65
2023-04-16T16:33:22.532Z,7.45
2023-04-16T16:35:50.803Z,8.93
2023-04-16T16:38:18.889Z,8.88
2023-04-16T16:40:47.193Z,8.90
2023-04-16T16:43:15.516Z,9.98
2023-04-16T16:45:44.088Z,8.15
2023-04-16T16:48:12.309Z,8.57
2023-04-16T16:50:40.658Z,9.05
2023-04-16T16:53:09.096Z,8.13
2023-04-16T16:55:37.387Z,8.75
2023-04-16T16:58:05.834Z,8.48
2023-04-16T17:00:33.930Z,7.95
2023-04-16T17:03:02.455Z,8.20
2023-04-16T17:05:30.801Z,9.00
2023-04-16T17:07:59.221Z,8.50
2023-04-16T17:10:27.401Z,8.43
2023-04-16T17:12:55.682Z,9.27
2023-04-16T17:15:24.036Z,11.70
2023-04-16T17:17:52.437Z,9.32
2023-04-16T17:20:26.643Z,8.63
2023-04-16T17:22:55.012Z,9.38
2023-04-16T17:25:23.302Z,9.05
2023-04-16T17:27:51.475Z,9.02
2023-04-16T17:30:19.699Z,10.10
2023-04-16T17:32:48.089Z,8.15
2023-04-16T17:35:16.335Z,8.30
2023-04-16T17:37:44.725Z,8.45
2023-04-16T17:40:13.106Z,9.70
2023-04-16T17:42:41.471Z,8.63
2023-04-16T17:45:10.084Z,8.90
2023-04-16T17:47:39.115Z,9.05
2023-04-16T17:50:08.674Z,9.50
2023-04-16T17:52:36.939Z,8.95
2023-04-16T17:55:06.178Z,9.43
2023-04-16T17:57:34.762Z,9.27
2023-04-16T18:00:02.951Z,8.88
2023-04-16T18:02:40.170Z,9.30
2023-04-16T18:05:09.433Z,8.40
2023-04-16T18:07:37.716Z,8.60
2023-04-16T18:10:06.564Z,9.07
2023-04-16T18:12:34.991Z,9.98
2023-04-16T18:15:03.207Z,8.73
2023-04-16T18:17:31.581Z,9.85
2023-04-16T18:19:59.674Z,9.07
2023-04-16T18:22:28.011Z,9.40
2023-04-16T18:24:56.198Z,8.88
2023-04-16T18:27:24.392Z,9.57
2023-04-16T18:29:54.592Z,10.60
2023-04-16T18:32:23.647Z,11.35
2023-04-16T18:34:52.863Z,9.70
2023-04-16T18:37:21.173Z,10.77
2023-04-16T18:39:49.648Z,9.00
2023-04-16T18:42:17.821Z,10.38
2023-04-16T18:44:53.803Z,9.40
2023-04-16T18:47:22.560Z,10.52
2023-04-16T18:49:51.046Z,12.52
2023-04-16T18:52:19.254Z,10.55
2023-04-16T18:54:47.555Z,10.35
2023-04-16T18:57:15.944Z,14.50
2023-04-16T18:59:44.080Z,12.18
2023-04-16T19:02:12.421Z,12.43
2023-04-16T19:04:40.676Z,13.70
2023-04-16T19:07:09.096Z,13.63
2023-04-16T19:09:37.215Z,14.50
2023-04-16T19:12:05.726Z,12.65
2023-04-16T19:14:34.124Z,12.73
2023-04-16T19:17:02.382Z,12.48
2023-04-16T19:19:30.579Z,13.00
2023-04-16T19:21:58.887Z,12.35
2023-04-16T19:24:27.160Z,9.65
2023-04-16T19:26:55.474Z,11.05
2023-04-16T19:29:23.705Z,10.57
2023-04-16T19:31:51.998Z,13.48
2023-04-16T19:34:20.286Z,13.52
2023-04-16T19:36:48.662Z,12.77
2023-04-16T19:39:16.746Z,12.77
2023-04-16T19:41:45.114Z,12.77
2023-04-16T19:44:13.348Z,12.27
2023-04-16T19:46:41.679Z,11.00
2023-04-16T19:49:10.261Z,10.27
2023-04-16T19:51:38.774Z,12.13
2023-04-16T19:54:07.252Z,12.73
2023-04-16T19:56:35.519Z,11.15
2023-04-16T19:59:03.728Z,11.77
2023-04-16T20:01:32.052Z,13.32
2023-04-16T20:04:00.390Z,15.43
2023-04-16T20:06:28.824Z,13.48
2023-04-16T20:08:57.349Z,12.80
2023-04-16T20:11:25.670Z,13.88
2023-04-16T20:13:53.868Z,13.88
2023-04-16T20:16:22.235Z,17.05
2023-04-16T20:18:50.672Z,18.65
2023-04-16T20:21:18.892Z,19.33
2023-04-16T20:23:47.414Z,20.40
2023-04-16T20:26:16.342Z,17.63
2023-04-16T20:28:47.529Z,15.48
2023-04-16T20:31:15.767Z,12.68
2023-04-16T20:33:44.165Z,14.77
2023-04-16T20:36:12.414Z,17.02
2023-04-16T20:38:40.461Z,13.93
2023-04-16T20:41:09.060Z,13.00
2023-04-16T20:43:41.402Z,12.70
2023-04-16T20:46:10.917Z,13.35
2023-04-16T20:48:39.850Z,12.43
2023-04-16T20:51:08.524Z,13.00
2023-04-16T20:53:36.902Z,12.73
2023-04-16T20:56:05.202Z,13.15
2023-04-16T20:58:33.601Z,13.77
2023-04-16T21:01:01.871Z,18.27
2023-04-16T21:03:30.276Z,15.82
2023-04-16T21:05:58.615Z,15.52
2023-04-16T21:08:26.921Z,19.88
2023-04-16T21:10:55.412Z,26.98
2023-04-16T21:13:23.574Z,19.50
2023-04-16T21:15:52.004Z,16.35
2023-04-16T21:18:20.236Z,13.05
2023-04-16T21:20:48.521Z,14.60
2023-04-16T21:23:16.796Z,14.05
2023-04-16T21:25:45.095Z,13.00
2023-04-16T21:28:13.289Z,14.40
2023-04-16T21:30:42.066Z,12.73
2023-04-16T21:33:10.312Z,16.02
2023-04-16T21:35:38.527Z,14.07
2023-04-16T21:38:06.794Z,15.68
2023-04-16T21:40:34.973Z,13.77
2023-04-16T21:43:03.139Z,14.25
2023-04-16T21:45:31.412Z,15.20
2023-04-16T21:47:59.584Z,16.50
2023-04-16T21:50:28.001Z,16.58
2023-04-16T21:52:56.151Z,15.13
2023-04-16T21:55:24.551Z,14.02
2023-04-16T21:57:52.717Z,14.10
2023-04-16T22:00:21.201Z,12.18
2023-04-16T22:02:49.377Z,13.45
2023-04-16T22:05:17.802Z,12.60
2023-04-16T22:07:46.061Z,11.77
2023-04-16T22:10:15.153Z,8.32
2023-04-16T22:12:44.616Z,7.43
2023-04-16T22:15:14.080Z,5.05
2023-04-16T22:17:42.437Z,4.95
2023-04-16T22:20:10.920Z,4.85
2023-04-16T22:22:40.066Z,3.38
2023-04-16T22:25:08.890Z,3.78
2023-04-16T22:27:37.304Z,3.65
2023-04-16T22:30:07.773Z,3.22
2023-04-16T22:32:36.154Z,3.63
2023-04-16T22:35:04.805Z,2.03
2023-04-16T22:37:32.996Z,4.82
2023-04-16T22:40:01.390Z,4.07
2023-04-16T22:42:29.568Z,3.22
2023-04-16T22:44:58.570Z,2.53
2023-04-16T22:47:26.885Z,3.40
2023-04-16T22:49:55.264Z,2.83
2023-04-16T22:52:23.645Z,3.22
2023-04-16T22:54:51.934Z,3.58
2023-04-16T22:57:20.330Z,5.88
2023-04-16T22:59:48.712Z,10.77
2023-04-16T23:02:17.228Z,7.15
2023-04-16T23:04:47.137Z,6.82
2023-04-16T23:07:16.107Z,4.68
2023-04-16T23:09:44.353Z,3.47
2023-04-16T23:12:13.916Z,4.03
2023-04-16T23:14:43.862Z,9.80
2023-04-16T23:17:12.807Z,11.57
2023-04-16T23:21:03.735Z,42.80
2023-04-16T23:23:31.940Z,25.55
2023-04-16T23:26:00.045Z,23.52
2023-04-16T23:28:28.490Z,13.20
2023-04-16T23:30:56.831Z,7.25
2023-04-16T23:33:24.971Z,7.75
2023-04-16T23:35:53.326Z,8.68
2023-04-16T23:38:21.615Z,7.85
2023-04-16T23:40:49.700Z,7.90
2023-04-16T23:43:18.068Z,7.35
2023-04-16T23:45:46.506Z,4.85
2023-04-16T23:48:15.986Z,4.60
2023-04-16T23:50:44.429Z,5.70
2023-04-16T23:53:12.888Z,4.57
2023-04-16T23:55:40.982Z,4.00
2023-04-16T23:58:09.547Z,4.60
